PST,Max TemperatureF,Mean TemperatureF,Min TemperatureF,Max Dew PointF,MeanDew PointF,Min DewpointF,Max Humidity, Mean Humidity, Min Humidity, Max Sea Level PressureIn, Mean Sea Level PressureIn, Min Sea Level PressureIn, Max VisibilityMiles, Mean VisibilityMiles, Min VisibilityMiles, Max Wind SpeedMPH, Mean Wind SpeedMPH, Max Gust SpeedMPH,PrecipitationIn, CloudCover, Events, WindDirDegrees
2014-2-1,56,49,42,42,39,35,83,65,47,30.21,30.16,30.13,10,10,10,12,5,16,0.00,0,,226
2014-2-2,52,47,42,46,41,32,92,75,58,30.12,29.98,29.91,10,9,3,16,6,22,0.65,5,Rain,105
2014-2-3,55,47,38,43,40,36,100,80,59,30.14,30.06,29.95,10,8,1,18,6,24,0.00,3,,222
2014-2-4,54,48,41,42,39,38,89,72,54,30.23,30.17,30.13,10,10,10,13,6,17,0.00,1,,253
2014-2-5,54,50,45,44,40,38,76,65,54,30.26,30.20,30.14,10,10,10,10,4,16,0.03,4,Rain,200
2014-2-6,59,54,48,54,48,43,93,84,75,30.11,29.98,29.88,10,8,1,15,5,24,0.61,8,Rain,144
2014-2-7,59,55,50,52,49,46,93,83,72,30.18,30.11,30.04,10,9,3,14,3,20,0.09,7,Rain,158
2014-2-8,64,59,53,57,54,51,93,83,72,30.25,30.20,30.14,10,10,4,17,5,29,0.07,8,Rain,164
2014-2-9,64,61,57,57,54,52,86,77,67,30.25,30.19,30.13,10,10,5,17,6,22,0.08,8,Rain,166
2014-2-10,60,56,51,55,53,50,100,92,84,30.33,30.26,30.17,10,6,0,10,4,14,0.02,8,Fog,262
2014-2-11,54,50,45,50,47,44,100,92,83,30.30,30.25,30.19,10,4,0,9,3,15,0.01,5,Fog,87
2014-2-12,60,52,44,52,47,42,93,85,77,30.32,30.25,30.19,10,8,0,9,3,12,0.00,2,Fog,173
2014-2-13,66,56,46,55,50,43,100,78,56,30.24,30.17,30.12,10,7,0,12,3,25,0.00,2,Fog,98
2014-2-14,64,56,48,55,52,47,100,82,63,30.21,30.16,30.09,10,8,1,10,3,14,0.00,5,,265
2014-2-15,61,55,48,54,50,45,93,86,78,30.13,30.08,30.03,10,10,10,13,4,15,0.00,3,,182
2014-2-16,63,56,49,55,51,44,93,77,60,30.22,30.14,30.08,10,7,1,13,4,17,0.03,5,Rain,230
2014-2-17,59,52,45,48,45,42,93,78,62,30.21,30.17,30.10,10,10,8,17,6,22,0.00,1,,224
2014-2-18,62,53,43,52,46,41,89,72,55,30.23,30.18,30.10,10,10,10,12,5,17,0.00,0,,19
2014-2-19,59,54,48,52,48,43,93,78,62,30.23,30.19,30.14,10,10,10,16,6,23,T,5,,244
2014-2-20,71,57,43,48,41,32,86,56,25,30.23,30.18,30.14,10,10,10,12,5,16,0.00,0,,57
2014-2-21,72,59,45,48,40,34,83,55,27,30.13,30.08,30.01,10,10,10,12,5,14,0.00,1,,179
2014-2-22,61,52,43,51,46,37,89,72,55,30.05,30.02,29.97,10,10,8,12,5,15,0.00,2,,231
2014-2-23,58,52,45,50,47,43,93,80,67,30.06,30.02,29.99,10,7,0,10,4,14,0.00,4,Fog,218
2014-2-24,69,56,42,49,46,41,100,71,42,30.04,30.00,29.96,10,6,0,14,3,16,0.00,4,Fog,94
2014-2-25,66,58,49,49,47,46,93,73,52,30.05,30.00,29.94,10,8,5,14,4,16,0.00,5,,46
2014-2-26,63,58,53,56,52,47,93,83,72,30.02,29.91,29.78,10,8,2,21,6,35,0.67,7,Rain,121
2014-2-27,66,60,54,51,50,48,83,70,56,29.98,29.85,29.56,10,10,10,17,5,28,T,4,Rain,213
2014-2-28,61,57,52,54,50,47,93,80,67,29.53,29.47,29.39,10,7,2,23,9,38,1.47,7,Rain-Thunderstorm,138